sensor_id;sensor_type;location;lat;lon;timestamp;temperature;humidity
1650;DHT22;822;53.670;8.676;2023-05-19T00:02:07;7.90;95.30
1650;DHT22;822;53.670;8.676;2023-05-19T00:04:35;7.90;95.30
1650;DHT22;822;53.670;8.676;2023-05-19T00:07:02;7.90;95.40
1650;DHT22;822;53.670;8.676;2023-05-19T00:09:32;7.90;95.40
1650;DHT22;822;53.670;8.676;2023-05-19T00:11:59;7.90;95.30
1650;DHT22;822;53.670;8.676;2023-05-19T00:14:27;7.90;95.40
1650;DHT22;822;53.670;8.676;2023-05-19T00:16:55;7.80;95.30
1650;DHT22;822;53.670;8.676;2023-05-19T00:19:24;7.80;95.30
1650;DHT22;822;53.670;8.676;2023-05-19T00:21:51;7.80;95.30
1650;DHT22;822;53.670;8.676;2023-05-19T00:24:18;7.80;95.30
1650;DHT22;822;53.670;8.676;2023-05-19T00:26:47;7.80;95.30
1650;DHT22;822;53.670;8.676;2023-05-19T00:29:14;7.80;95.30
1650;DHT22;822;53.670;8.676;2023-05-19T00:31:43;7.80;95.30
1650;DHT22;822;53.670;8.676;2023-05-19T00:34:10;7.80;95.30
1650;DHT22;822;53.670;8.676;2023-05-19T00:36:40;7.80;95.30
1650;DHT22;822;53.670;8.676;2023-05-19T00:39:07;7.80;95.30
1650;DHT22;822;53.670;8.676;2023-05-19T00:41:35;7.80;95.20
1650;DHT22;822;53.670;8.676;2023-05-19T00:44:05;7.80;95.20
1650;DHT22;822;53.670;8.676;2023-05-19T00:46:32;7.80;95.20
1650;DHT22;822;53.670;8.676;2023-05-19T00:48:59;7.70;95.10
1650;DHT22;822;53.670;8.676;2023-05-19T00:51:27;7.70;95.20
1650;DHT22;822;53.670;8.676;2023-05-19T00:53:54;7.70;95.20
1650;DHT22;822;53.670;8.676;2023-05-19T00:56:22;7.70;95.20
1650;DHT22;822;53.670;8.676;2023-05-19T00:58:50;7.70;95.10
1650;DHT22;822;53.670;8.676;2023-05-19T01:01:19;7.70;95.10
1650;DHT22;822;53.670;8.676;2023-05-19T01:03:47;7.70;95.10
1650;DHT22;822;53.670;8.676;2023-05-19T01:06:14;7.60;95.00
1650;DHT22;822;53.670;8.676;2023-05-19T01:08:43;7.60;95.00
1650;DHT22;822;53.670;8.676;2023-05-19T01:11:11;7.60;95.10
1650;DHT22;822;53.670;8.676;2023-05-19T01:13:39;7.50;95.00
1650;DHT22;822;53.670;8.676;2023-05-19T01:16:10;7.50;95.00
1650;DHT22;822;53.670;8.676;2023-05-19T01:18:43;7.50;95.00
1650;DHT22;822;53.670;8.676;2023-05-19T01:21:31;7.40;95.00
1650;DHT22;822;53.670;8.676;2023-05-19T01:24:12;7.40;95.00
1650;DHT22;822;53.670;8.676;2023-05-19T01:30:06;7.30;95.00
1650;DHT22;822;53.670;8.676;2023-05-19T01:32:35;7.30;94.90
1650;DHT22;822;53.670;8.676;2023-05-19T01:35:03;7.30;95.00
1650;DHT22;822;53.670;8.676;2023-05-19T01:37:33;7.30;95.00
1650;DHT22;822;53.670;8.676;2023-05-19T01:40:01;7.20;95.00
1650;DHT22;822;53.670;8.676;2023-05-19T01:42:30;7.20;95.00
1650;DHT22;822;53.670;8.676;2023-05-19T01:45:02;7.20;95.00
1650;DHT22;822;53.670;8.676;2023-05-19T01:47:32;7.20;95.00
1650;DHT22;822;53.670;8.676;2023-05-19T01:50:03;7.20;95.00
1650;DHT22;822;53.670;8.676;2023-05-19T01:52:30;7.10;95.00
1650;DHT22;822;53.670;8.676;2023-05-19T01:54:57;7.10;94.90
1650;DHT22;822;53.670;8.676;2023-05-19T01:57:31;7.10;95.00
1650;DHT22;822;53.670;8.676;2023-05-19T02:00:04;7.00;94.90
1650;DHT22;822;53.670;8.676;2023-05-19T02:02:45;7.00;94.80
1650;DHT22;822;53.670;8.676;2023-05-19T02:05:19;6.90;94.80
1650;DHT22;822;53.670;8.676;2023-05-19T02:07:57;6.90;94.90
1650;DHT22;822;53.670;8.676;2023-05-19T02:10:28;6.90;94.80
1650;DHT22;822;53.670;8.676;2023-05-19T02:13:00;6.80;94.90
1650;DHT22;822;53.670;8.676;2023-05-19T02:15:35;6.80;94.90
1650;DHT22;822;53.670;8.676;2023-05-19T02:18:06;6.80;94.90
1650;DHT22;822;53.670;8.676;2023-05-19T02:20:36;6.80;94.90
1650;DHT22;822;53.670;8.676;2023-05-19T02:23:04;6.80;94.90
1650;DHT22;822;53.670;8.676;2023-05-19T02:25:31;6.80;95.00
1650;DHT22;822;53.670;8.676;2023-05-19T02:27:58;6.70;95.00
1650;DHT22;822;53.670;8.676;2023-05-19T02:30:25;6.70;95.20
1650;DHT22;822;53.670;8.676;2023-05-19T02:32:52;6.70;95.00
1650;DHT22;822;53.670;8.676;2023-05-19T02:35:21;6.60;95.10
1650;DHT22;822;53.670;8.676;2023-05-19T02:37:48;6.70;95.20
1650;DHT22;822;53.670;8.676;2023-05-19T02:40:16;6.70;95.20
1650;DHT22;822;53.670;8.676;2023-05-19T02:42:43;6.70;95.20
1650;DHT22;822;53.670;8.676;2023-05-19T02:45:11;6.70;95.20
1650;DHT22;822;53.670;8.676;2023-05-19T02:47:38;6.80;95.30
1650;DHT22;822;53.670;8.676;2023-05-19T02:50:07;6.70;95.20
1650;DHT22;822;53.670;8.676;2023-05-19T02:52:35;6.70;95.20
1650;DHT22;822;53.670;8.676;2023-05-19T02:55:03;6.70;95.20
1650;DHT22;822;53.670;8.676;2023-05-19T02:57:31;6.70;95.20
1650;DHT22;822;53.670;8.676;2023-05-19T02:59:59;6.60;95.10
1650;DHT22;822;53.670;8.676;2023-05-19T03:02:26;6.60;95.10
1650;DHT22;822;53.670;8.676;2023-05-19T03:04:53;6.60;95.10
1650;DHT22;822;53.670;8.676;2023-05-19T03:07:20;6.50;95.10
1650;DHT22;822;53.670;8.676;2023-05-19T03:09:51;6.50;95.10
1650;DHT22;822;53.670;8.676;2023-05-19T03:12:18;6.50;95.00
1650;DHT22;822;53.670;8.676;2023-05-19T03:14:46;6.40;95.00
1650;DHT22;822;53.670;8.676;2023-05-19T03:17:13;6.40;95.00
1650;DHT22;822;53.670;8.676;2023-05-19T03:19:40;6.40;95.10
1650;DHT22;822;53.670;8.676;2023-05-19T03:22:11;6.40;95.00
1650;DHT22;822;53.670;8.676;2023-05-19T03:24:38;6.30;95.10
1650;DHT22;822;53.670;8.676;2023-05-19T03:27:06;6.40;95.10
1650;DHT22;822;53.670;8.676;2023-05-19T03:29:33;6.40;95.00
1650;DHT22;822;53.670;8.676;2023-05-19T03:32:01;6.40;95.10
1650;DHT22;822;53.670;8.676;2023-05-19T03:34:28;6.40;95.00
1650;DHT22;822;53.670;8.676;2023-05-19T03:36:57;6.40;95.00
1650;DHT22;822;53.670;8.676;2023-05-19T03:39:24;6.40;95.00
1650;DHT22;822;53.670;8.676;2023-05-19T03:41:51;6.40;95.00
1650;DHT22;822;53.670;8.676;2023-05-19T03:44:20;6.40;95.00
1650;DHT22;822;53.670;8.676;2023-05-19T03:46:47;6.50;94.90
1650;DHT22;822;53.670;8.676;2023-05-19T03:49:14;6.50;94.90
1650;DHT22;822;53.670;8.676;2023-05-19T03:51:41;6.50;94.90
1650;DHT22;822;53.670;8.676;2023-05-19T03:54:09;6.50;94.90
1650;DHT22;822;53.670;8.676;2023-05-19T03:56:38;6.50;94.80
1650;DHT22;822;53.670;8.676;2023-05-19T03:59:05;6.50;94.70
1650;DHT22;822;53.670;8.676;2023-05-19T04:01:34;6.50;94.70
1650;DHT22;822;53.670;8.676;2023-05-19T04:04:01;6.50;94.70
1650;DHT22;822;53.670;8.676;2023-05-19T04:06:28;6.50;94.60
1650;DHT22;822;53.670;8.676;2023-05-19T04:08:56;6.50;94.60
1650;DHT22;822;53.670;8.676;2023-05-19T04:11:23;6.50;94.50
1650;DHT22;822;53.670;8.676;2023-05-19T04:13:50;6.50;94.50
1650;DHT22;822;53.670;8.676;2023-05-19T04:16:17;6.50;94.50
1650;DHT22;822;53.670;8.676;2023-05-19T04:18:46;6.50;94.50
1650;DHT22;822;53.670;8.676;2023-05-19T04:21:13;6.50;94.40
1650;DHT22;822;53.670;8.676;2023-05-19T04:23:40;6.50;94.40
1650;DHT22;822;53.670;8.676;2023-05-19T04:26:07;6.50;94.40
1650;DHT22;822;53.670;8.676;2023-05-19T04:28:34;6.40;94.30
1650;DHT22;822;53.670;8.676;2023-05-19T04:31:04;6.40;94.30
1650;DHT22;822;53.670;8.676;2023-05-19T04:33:35;6.40;94.30
1650;DHT22;822;53.670;8.676;2023-05-19T04:36:04;6.40;94.30
1650;DHT22;822;53.670;8.676;2023-05-19T04:38:33;6.40;94.30
1650;DHT22;822;53.670;8.676;2023-05-19T04:41:01;6.40;94.40
1650;DHT22;822;53.670;8.676;2023-05-19T04:43:29;6.40;94.30
1650;DHT22;822;53.670;8.676;2023-05-19T04:45:56;6.40;94.40
1650;DHT22;822;53.670;8.676;2023-05-19T04:48:23;6.40;94.30
1650;DHT22;822;53.670;8.676;2023-05-19T04:50:52;6.40;94.30
1650;DHT22;822;53.670;8.676;2023-05-19T04:53:20;6.40;94.40
1650;DHT22;822;53.670;8.676;2023-05-19T04:55:50;6.40;94.40
1650;DHT22;822;53.670;8.676;2023-05-19T04:58:17;6.40;94.40
1650;DHT22;822;53.670;8.676;2023-05-19T05:00:44;6.40;94.50
1650;DHT22;822;53.670;8.676;2023-05-19T05:03:11;6.40;94.50
1650;DHT22;822;53.670;8.676;2023-05-19T05:05:39;6.50;94.60
1650;DHT22;822;53.670;8.676;2023-05-19T05:08:06;6.50;94.60
1650;DHT22;822;53.670;8.676;2023-05-19T05:10:35;6.50;94.60
1650;DHT22;822;53.670;8.676;2023-05-19T05:13:03;6.60;94.70
1650;DHT22;822;53.670;8.676;2023-05-19T05:15:30;6.60;94.70
1650;DHT22;822;53.670;8.676;2023-05-19T05:17:58;6.60;94.70
1650;DHT22;822;53.670;8.676;2023-05-19T05:20:25;6.70;94.70
1650;DHT22;822;53.670;8.676;2023-05-19T05:22:53;6.70;94.80
1650;DHT22;822;53.670;8.676;2023-05-19T05:25:21;6.80;94.80
1650;DHT22;822;53.670;8.676;2023-05-19T05:27:50;6.80;94.80
1650;DHT22;822;53.670;8.676;2023-05-19T05:30:17;6.90;94.80
1650;DHT22;822;53.670;8.676;2023-05-19T05:32:44;7.00;94.90
1650;DHT22;822;53.670;8.676;2023-05-19T05:35:11;7.10;94.90
1650;DHT22;822;53.670;8.676;2023-05-19T05:37:38;7.20;94.90
1650;DHT22;822;53.670;8.676;2023-05-19T05:40:08;7.30;94.90
1650;DHT22;822;53.670;8.676;2023-05-19T05:42:35;7.40;95.00
1650;DHT22;822;53.670;8.676;2023-05-19T05:45:04;7.50;95.00
1650;DHT22;822;53.670;8.676;2023-05-19T05:47:33;7.60;95.00
1650;DHT22;822;53.670;8.676;2023-05-19T05:50:03;7.80;95.00
1650;DHT22;822;53.670;8.676;2023-05-19T05:52:31;7.90;95.00
1650;DHT22;822;53.670;8.676;2023-05-19T05:54:59;8.00;94.80
1650;DHT22;822;53.670;8.676;2023-05-19T05:57:26;8.10;94.90
1650;DHT22;822;53.670;8.676;2023-05-19T05:59:55;8.30;94.90
1650;DHT22;822;53.670;8.676;2023-05-19T06:02:24;8.40;94.80
1650;DHT22;822;53.670;8.676;2023-05-19T06:04:52;8.60;94.80
1650;DHT22;822;53.670;8.676;2023-05-19T06:07:20;8.70;94.80
1650;DHT22;822;53.670;8.676;2023-05-19T06:09:47;8.90;94.40
1650;DHT22;822;53.670;8.676;2023-05-19T06:12:14;9.00;94.20
1650;DHT22;822;53.670;8.676;2023-05-19T06:14:42;9.10;94.40
1650;DHT22;822;53.670;8.676;2023-05-19T06:17:09;9.20;94.30
1650;DHT22;822;53.670;8.676;2023-05-19T06:19:37;9.40;94.30
1650;DHT22;822;53.670;8.676;2023-05-19T06:22:05;9.50;94.00
1650;DHT22;822;53.670;8.676;2023-05-19T06:24:32;9.70;93.60
1650;DHT22;822;53.670;8.676;2023-05-19T06:26:59;9.80;93.50
1650;DHT22;822;53.670;8.676;2023-05-19T06:29:27;9.90;93.60
1650;DHT22;822;53.670;8.676;2023-05-19T06:31:54;10.10;93.60
1650;DHT22;822;53.670;8.676;2023-05-19T06:34:22;10.30;93.30
1650;DHT22;822;53.670;8.676;2023-05-19T06:36:50;10.40;93.20
1650;DHT22;822;53.670;8.676;2023-05-19T06:39:18;10.50;92.80
1650;DHT22;822;53.670;8.676;2023-05-19T06:41:45;10.60;92.30
1650;DHT22;822;53.670;8.676;2023-05-19T06:44:12;10.60;92.20
1650;DHT22;822;53.670;8.676;2023-05-19T06:46:39;10.70;92.30
1650;DHT22;822;53.670;8.676;2023-05-19T06:49:06;10.90;92.20
1650;DHT22;822;53.670;8.676;2023-05-19T06:51:34;11.00;91.30
1650;DHT22;822;53.670;8.676;2023-05-19T06:54:02;11.00;91.40
1650;DHT22;822;53.670;8.676;2023-05-19T06:56:29;11.20;91.20
1650;DHT22;822;53.670;8.676;2023-05-19T06:58:56;11.20;90.80
1650;DHT22;822;53.670;8.676;2023-05-19T07:01:24;11.30;90.60
1650;DHT22;822;53.670;8.676;2023-05-19T07:03:52;11.30;90.50
1650;DHT22;822;53.670;8.676;2023-05-19T07:06:19;11.40;90.50
1650;DHT22;822;53.670;8.676;2023-05-19T07:08:46;11.50;90.50
1650;DHT22;822;53.670;8.676;2023-05-19T07:11:15;11.60;89.80
1650;DHT22;822;53.670;8.676;2023-05-19T07:13:42;11.60;88.70
1650;DHT22;822;53.670;8.676;2023-05-19T07:16:09;11.70;88.60
1650;DHT22;822;53.670;8.676;2023-05-19T07:18:36;11.80;88.20
1650;DHT22;822;53.670;8.676;2023-05-19T07:21:04;12.00;88.60
1650;DHT22;822;53.670;8.676;2023-05-19T07:23:35;12.10;88.00
1650;DHT22;822;53.670;8.676;2023-05-19T07:26:03;12.20;87.80
1650;DHT22;822;53.670;8.676;2023-05-19T07:28:32;12.40;87.30
1650;DHT22;822;53.670;8.676;2023-05-19T07:31:01;12.40;87.50
1650;DHT22;822;53.670;8.676;2023-05-19T07:33:28;12.50;86.40
1650;DHT22;822;53.670;8.676;2023-05-19T07:35:56;12.50;85.10
1650;DHT22;822;53.670;8.676;2023-05-19T07:38:23;12.50;83.90
1650;DHT22;822;53.670;8.676;2023-05-19T07:40:50;12.40;83.90
1650;DHT22;822;53.670;8.676;2023-05-19T07:43:18;12.50;85.30
1650;DHT22;822;53.670;8.676;2023-05-19T07:45:46;12.60;84.90
1650;DHT22;822;53.670;8.676;2023-05-19T07:48:13;12.70;84.70
1650;DHT22;822;53.670;8.676;2023-05-19T07:50:43;12.70;83.90
1650;DHT22;822;53.670;8.676;2023-05-19T07:53:10;12.80;84.00
1650;DHT22;822;53.670;8.676;2023-05-19T07:55:38;12.80;84.10
1650;DHT22;822;53.670;8.676;2023-05-19T07:58:06;13.00;84.00
1650;DHT22;822;53.670;8.676;2023-05-19T08:00:34;13.00;83.50
1650;DHT22;822;53.670;8.676;2023-05-19T08:03:03;13.10;82.40
1650;DHT22;822;53.670;8.676;2023-05-19T08:05:30;13.20;82.90
1650;DHT22;822;53.670;8.676;2023-05-19T08:07:57;13.30;83.20
1650;DHT22;822;53.670;8.676;2023-05-19T08:10:24;13.40;83.00
1650;DHT22;822;53.670;8.676;2023-05-19T08:12:51;13.40;82.40
1650;DHT22;822;53.670;8.676;2023-05-19T08:15:19;13.50;82.40
1650;DHT22;822;53.670;8.676;2023-05-19T08:17:46;13.70;82.00
1650;DHT22;822;53.670;8.676;2023-05-19T08:20:15;13.80;81.40
1650;DHT22;822;53.670;8.676;2023-05-19T08:22:42;13.90;81.20
1650;DHT22;822;53.670;8.676;2023-05-19T08:25:09;14.10;81.50
1650;DHT22;822;53.670;8.676;2023-05-19T08:27:36;14.20;80.00
1650;DHT22;822;53.670;8.676;2023-05-19T08:30:04;14.40;78.50
1650;DHT22;822;53.670;8.676;2023-05-19T08:32:32;14.50;76.10
1650;DHT22;822;53.670;8.676;2023-05-19T08:34:59;14.60;74.70
1650;DHT22;822;53.670;8.676;2023-05-19T08:37:27;14.70;73.40
1650;DHT22;822;53.670;8.676;2023-05-19T08:39:55;14.80;72.80
1650;DHT22;822;53.670;8.676;2023-05-19T08:42:22;14.90;70.10
1650;DHT22;822;53.670;8.676;2023-05-19T08:44:49;15.00;70.20
1650;DHT22;822;53.670;8.676;2023-05-19T08:47:16;15.00;71.20
1650;DHT22;822;53.670;8.676;2023-05-19T08:49:45;15.20;73.20
1650;DHT22;822;53.670;8.676;2023-05-19T08:52:18;15.30;71.80
1650;DHT22;822;53.670;8.676;2023-05-19T08:55:01;15.40;68.20
1650;DHT22;822;53.670;8.676;2023-05-19T08:57:31;15.50;69.70
1650;DHT22;822;53.670;8.676;2023-05-19T08:59:59;15.70;69.80
1650;DHT22;822;53.670;8.676;2023-05-19T09:02:26;15.80;68.20
1650;DHT22;822;53.670;8.676;2023-05-19T09:04:55;15.90;69.40
1650;DHT22;822;53.670;8.676;2023-05-19T09:07:23;16.10;68.90
1650;DHT22;822;53.670;8.676;2023-05-19T09:09:52;16.20;65.50
1650;DHT22;822;53.670;8.676;2023-05-19T09:12:19;16.20;66.20
1650;DHT22;822;53.670;8.676;2023-05-19T09:14:47;16.20;64.50
1650;DHT22;822;53.670;8.676;2023-05-19T09:17:14;16.30;66.60
1650;DHT22;822;53.670;8.676;2023-05-19T09:19:42;16.40;66.80
1650;DHT22;822;53.670;8.676;2023-05-19T09:22:14;16.50;65.40
1650;DHT22;822;53.670;8.676;2023-05-19T09:24:44;16.60;65.50
1650;DHT22;822;53.670;8.676;2023-05-19T09:27:14;16.90;64.70
1650;DHT22;822;53.670;8.676;2023-05-19T09:29:47;16.90;61.40
1650;DHT22;822;53.670;8.676;2023-05-19T09:32:23;17.00;61.90
1650;DHT22;822;53.670;8.676;2023-05-19T09:34:52;17.00;60.80
1650;DHT22;822;53.670;8.676;2023-05-19T09:37:22;17.10;62.20
1650;DHT22;822;53.670;8.676;2023-05-19T09:39:49;17.20;62.40
1650;DHT22;822;53.670;8.676;2023-05-19T09:42:24;17.40;61.00
1650;DHT22;822;53.670;8.676;2023-05-19T09:44:58;17.40;59.70
1650;DHT22;822;53.670;8.676;2023-05-19T09:47:26;17.50;59.10
1650;DHT22;822;53.670;8.676;2023-05-19T09:49:53;17.60;59.90
1650;DHT22;822;53.670;8.676;2023-05-19T09:52:21;17.70;59.10
1650;DHT22;822;53.670;8.676;2023-05-19T09:54:48;17.80;58.70
1650;DHT22;822;53.670;8.676;2023-05-19T09:57:17;18.00;57.80
1650;DHT22;822;53.670;8.676;2023-05-19T09:59:45;18.20;60.50
1650;DHT22;822;53.670;8.676;2023-05-19T10:02:15;18.30;59.50
1650;DHT22;822;53.670;8.676;2023-05-19T10:04:45;18.40;57.20
1650;DHT22;822;53.670;8.676;2023-05-19T10:07:14;18.50;56.30
1650;DHT22;822;53.670;8.676;2023-05-19T10:09:42;18.60;54.50
1650;DHT22;822;53.670;8.676;2023-05-19T10:12:11;18.60;56.20
1650;DHT22;822;53.670;8.676;2023-05-19T10:14:39;18.70;54.70
1650;DHT22;822;53.670;8.676;2023-05-19T10:17:08;18.80;55.10
1650;DHT22;822;53.670;8.676;2023-05-19T10:19:37;18.80;55.90
1650;DHT22;822;53.670;8.676;2023-05-19T10:22:05;18.90;55.70
1650;DHT22;822;53.670;8.676;2023-05-19T10:24:32;19.00;54.20
1650;DHT22;822;53.670;8.676;2023-05-19T10:27:02;19.10;54.00
1650;DHT22;822;53.670;8.676;2023-05-19T10:29:36;19.20;53.30
1650;DHT22;822;53.670;8.676;2023-05-19T10:32:09;19.20;54.00
1650;DHT22;822;53.670;8.676;2023-05-19T10:37:44;19.40;52.70
1650;DHT22;822;53.670;8.676;2023-05-19T10:40:19;19.40;51.70
1650;DHT22;822;53.670;8.676;2023-05-19T10:42:56;19.50;51.40
1650;DHT22;822;53.670;8.676;2023-05-19T10:45:33;19.30;50.50
1650;DHT22;822;53.670;8.676;2023-05-19T10:48:04;19.20;52.10
1650;DHT22;822;53.670;8.676;2023-05-19T10:50:38;19.10;53.20
1650;DHT22;822;53.670;8.676;2023-05-19T10:53:13;19.20;53.80
1650;DHT22;822;53.670;8.676;2023-05-19T10:55:49;19.20;52.50
1650;DHT22;822;53.670;8.676;2023-05-19T10:58:37;19.30;52.30
1650;DHT22;822;53.670;8.676;2023-05-19T11:01:08;19.30;52.10
1650;DHT22;822;53.670;8.676;2023-05-19T11:03:48;19.40;50.30
1650;DHT22;822;53.670;8.676;2023-05-19T11:06:23;19.40;50.00
1650;DHT22;822;53.670;8.676;2023-05-19T11:08:56;19.50;50.20
1650;DHT22;822;53.670;8.676;2023-05-19T11:11:25;19.60;50.00
1650;DHT22;822;53.670;8.676;2023-05-19T11:13:54;19.70;53.00
1650;DHT22;822;53.670;8.676;2023-05-19T11:16:27;19.70;50.20
1650;DHT22;822;53.670;8.676;2023-05-19T11:18:58;19.70;50.70
1650;DHT22;822;53.670;8.676;2023-05-19T11:21:40;19.70;52.20
1650;DHT22;822;53.670;8.676;2023-05-19T11:24:08;19.80;52.40
1650;DHT22;822;53.670;8.676;2023-05-19T11:26:47;19.90;49.50
1650;DHT22;822;53.670;8.676;2023-05-19T11:29:14;19.70;48.00
1650;DHT22;822;53.670;8.676;2023-05-19T11:31:49;19.60;51.10
1650;DHT22;822;53.670;8.676;2023-05-19T11:34:19;19.70;49.20
1650;DHT22;822;53.670;8.676;2023-05-19T11:36:46;19.80;48.80
1650;DHT22;822;53.670;8.676;2023-05-19T11:39:15;19.80;49.70
1650;DHT22;822;53.670;8.676;2023-05-19T11:41:44;19.80;49.30
1650;DHT22;822;53.670;8.676;2023-05-19T11:44:11;19.70;48.40
1650;DHT22;822;53.670;8.676;2023-05-19T11:46:38;19.50;48.70
1650;DHT22;822;53.670;8.676;2023-05-19T11:49:05;19.40;49.20
1650;DHT22;822;53.670;8.676;2023-05-19T11:51:34;19.40;50.00
1650;DHT22;822;53.670;8.676;2023-05-19T11:54:03;19.50;52.00
1650;DHT22;822;53.670;8.676;2023-05-19T11:56:33;19.50;48.20
1650;DHT22;822;53.670;8.676;2023-05-19T11:59:01;19.40;47.70
1650;DHT22;822;53.670;8.676;2023-05-19T12:01:28;19.40;48.20
1650;DHT22;822;53.670;8.676;2023-05-19T12:03:56;19.40;48.70
1650;DHT22;822;53.670;8.676;2023-05-19T12:06:24;19.30;47.50
1650;DHT22;822;53.670;8.676;2023-05-19T12:08:53;19.10;46.90
1650;DHT22;822;53.670;8.676;2023-05-19T12:11:21;19.00;48.90
1650;DHT22;822;53.670;8.676;2023-05-19T12:13:49;19.10;50.60
1650;DHT22;822;53.670;8.676;2023-05-19T12:16:19;19.20;49.60
1650;DHT22;822;53.670;8.676;2023-05-19T12:18:46;19.30;51.50
1650;DHT22;822;53.670;8.676;2023-05-19T12:21:13;19.50;50.70
1650;DHT22;822;53.670;8.676;2023-05-19T12:23:41;19.60;48.10
1650;DHT22;822;53.670;8.676;2023-05-19T12:26:10;19.70;47.60
1650;DHT22;822;53.670;8.676;2023-05-19T12:28:37;19.80;45.20
1650;DHT22;822;53.670;8.676;2023-05-19T12:31:05;19.90;48.30
1650;DHT22;822;53.670;8.676;2023-05-19T12:33:32;19.90;46.30
1650;DHT22;822;53.670;8.676;2023-05-19T12:36:00;19.90;46.40
1650;DHT22;822;53.670;8.676;2023-05-19T12:38:27;19.90;45.30
1650;DHT22;822;53.670;8.676;2023-05-19T12:40:57;19.90;46.70
1650;DHT22;822;53.670;8.676;2023-05-19T12:43:26;20.00;47.00
1650;DHT22;822;53.670;8.676;2023-05-19T12:45:53;20.10;46.20
1650;DHT22;822;53.670;8.676;2023-05-19T12:48:21;20.10;45.30
1650;DHT22;822;53.670;8.676;2023-05-19T12:50:51;20.20;46.00
1650;DHT22;822;53.670;8.676;2023-05-19T12:53:18;20.30;47.40
1650;DHT22;822;53.670;8.676;2023-05-19T12:55:46;20.30;44.90
1650;DHT22;822;53.670;8.676;2023-05-19T12:58:14;20.40;44.80
1650;DHT22;822;53.670;8.676;2023-05-19T13:00:45;20.50;43.30
1650;DHT22;822;53.670;8.676;2023-05-19T13:03:15;20.50;43.70
1650;DHT22;822;53.670;8.676;2023-05-19T13:05:44;20.50;43.80
1650;DHT22;822;53.670;8.676;2023-05-19T13:08:12;20.40;43.70
1650;DHT22;822;53.670;8.676;2023-05-19T13:10:44;20.50;46.30
1650;DHT22;822;53.670;8.676;2023-05-19T13:13:12;20.60;45.60
1650;DHT22;822;53.670;8.676;2023-05-19T13:15:40;20.70;44.90
1650;DHT22;822;53.670;8.676;2023-05-19T13:18:13;20.60;43.90
1650;DHT22;822;53.670;8.676;2023-05-19T13:20:41;20.60;46.30
1650;DHT22;822;53.670;8.676;2023-05-19T13:23:12;20.60;46.70
1650;DHT22;822;53.670;8.676;2023-05-19T13:25:40;20.50;45.20
1650;DHT22;822;53.670;8.676;2023-05-19T13:28:08;20.50;45.20
1650;DHT22;822;53.670;8.676;2023-05-19T13:30:38;20.60;45.10
1650;DHT22;822;53.670;8.676;2023-05-19T13:33:06;20.60;44.40
1650;DHT22;822;53.670;8.676;2023-05-19T13:35:34;20.60;44.50
1650;DHT22;822;53.670;8.676;2023-05-19T13:38:03;20.60;45.60
1650;DHT22;822;53.670;8.676;2023-05-19T13:40:30;20.70;46.50
1650;DHT22;822;53.670;8.676;2023-05-19T13:43:00;20.80;47.80
1650;DHT22;822;53.670;8.676;2023-05-19T13:45:29;20.80;47.80
1650;DHT22;822;53.670;8.676;2023-05-19T13:47:56;20.80;47.20
1650;DHT22;822;53.670;8.676;2023-05-19T13:50:23;20.90;47.40
1650;DHT22;822;53.670;8.676;2023-05-19T13:52:51;20.80;45.70
1650;DHT22;822;53.670;8.676;2023-05-19T13:55:19;20.60;46.50
1650;DHT22;822;53.670;8.676;2023-05-19T13:57:47;20.40;47.00
1650;DHT22;822;53.670;8.676;2023-05-19T14:00:14;20.30;47.40
1650;DHT22;822;53.670;8.676;2023-05-19T14:02:42;20.30;47.30
1650;DHT22;822;53.670;8.676;2023-05-19T14:05:10;20.30;45.80
1650;DHT22;822;53.670;8.676;2023-05-19T14:07:37;20.30;46.00
1650;DHT22;822;53.670;8.676;2023-05-19T14:10:07;20.30;46.60
1650;DHT22;822;53.670;8.676;2023-05-19T14:12:34;20.40;47.10
1650;DHT22;822;53.670;8.676;2023-05-19T14:15:01;20.40;46.70
1650;DHT22;822;53.670;8.676;2023-05-19T14:17:28;20.50;46.60
1650;DHT22;822;53.670;8.676;2023-05-19T14:19:58;20.50;46.80
1650;DHT22;822;53.670;8.676;2023-05-19T14:22:25;20.40;46.30
1650;DHT22;822;53.670;8.676;2023-05-19T14:24:52;20.30;46.20
1650;DHT22;822;53.670;8.676;2023-05-19T14:27:21;20.30;46.30
1650;DHT22;822;53.670;8.676;2023-05-19T14:29:48;20.20;46.60
1650;DHT22;822;53.670;8.676;2023-05-19T14:32:19;20.20;46.80
1650;DHT22;822;53.670;8.676;2023-05-19T14:34:46;20.20;47.30
1650;DHT22;822;53.670;8.676;2023-05-19T14:37:17;20.20;46.90
1650;DHT22;822;53.670;8.676;2023-05-19T14:39:44;20.30;48.00
1650;DHT22;822;53.670;8.676;2023-05-19T14:42:11;20.30;46.40
1650;DHT22;822;53.670;8.676;2023-05-19T14:44:40;20.30;46.00
1650;DHT22;822;53.670;8.676;2023-05-19T14:47:10;20.30;46.20
1650;DHT22;822;53.670;8.676;2023-05-19T14:49:37;20.30;45.50
1650;DHT22;822;53.670;8.676;2023-05-19T14:52:04;20.20;46.10
1650;DHT22;822;53.670;8.676;2023-05-19T14:54:31;20.10;46.20
1650;DHT22;822;53.670;8.676;2023-05-19T14:56:58;20.00;46.40
1650;DHT22;822;53.670;8.676;2023-05-19T14:59:26;20.00;47.60
1650;DHT22;822;53.670;8.676;2023-05-19T15:01:55;20.00;47.40
1650;DHT22;822;53.670;8.676;2023-05-19T15:04:22;20.00;45.80
1650;DHT22;822;53.670;8.676;2023-05-19T15:06:49;19.90;45.60
1650;DHT22;822;53.670;8.676;2023-05-19T15:09:17;19.90;45.00
1650;DHT22;822;53.670;8.676;2023-05-19T15:11:44;19.80;45.70
1650;DHT22;822;53.670;8.676;2023-05-19T15:14:11;19.70;46.20
1650;DHT22;822;53.670;8.676;2023-05-19T15:16:38;19.60;45.50
1650;DHT22;822;53.670;8.676;2023-05-19T15:19:06;19.50;45.90
1650;DHT22;822;53.670;8.676;2023-05-19T15:21:34;19.40;45.60
1650;DHT22;822;53.670;8.676;2023-05-19T15:24:04;19.40;45.30
1650;DHT22;822;53.670;8.676;2023-05-19T15:26:31;19.30;46.20
1650;DHT22;822;53.670;8.676;2023-05-19T15:28:58;19.20;47.20
1650;DHT22;822;53.670;8.676;2023-05-19T15:31:25;19.10;46.80
1650;DHT22;822;53.670;8.676;2023-05-19T15:33:53;19.00;47.30
1650;DHT22;822;53.670;8.676;2023-05-19T15:36:21;18.90;46.40
1650;DHT22;822;53.670;8.676;2023-05-19T15:38:48;18.80;47.30
1650;DHT22;822;53.670;8.676;2023-05-19T15:41:15;18.80;48.00
1650;DHT22;822;53.670;8.676;2023-05-19T15:43:43;18.80;48.20
1650;DHT22;822;53.670;8.676;2023-05-19T15:46:11;18.70;48.10
1650;DHT22;822;53.670;8.676;2023-05-19T15:48:40;18.60;47.90
1650;DHT22;822;53.670;8.676;2023-05-19T15:51:07;18.60;48.40
1650;DHT22;822;53.670;8.676;2023-05-19T15:53:37;18.50;48.60
1650;DHT22;822;53.670;8.676;2023-05-19T15:56:04;18.50;49.00
1650;DHT22;822;53.670;8.676;2023-05-19T15:58:32;18.50;48.00
1650;DHT22;822;53.670;8.676;2023-05-19T16:00:59;18.40;49.00
1650;DHT22;822;53.670;8.676;2023-05-19T16:03:26;18.30;48.70
1650;DHT22;822;53.670;8.676;2023-05-19T16:05:54;18.30;49.20
1650;DHT22;822;53.670;8.676;2023-05-19T16:08:25;18.30;49.40
1650;DHT22;822;53.670;8.676;2023-05-19T16:10:54;18.30;49.90
1650;DHT22;822;53.670;8.676;2023-05-19T16:13:21;18.20;50.10
1650;DHT22;822;53.670;8.676;2023-05-19T16:15:49;18.20;50.90
1650;DHT22;822;53.670;8.676;2023-05-19T16:18:16;18.20;51.20
1650;DHT22;822;53.670;8.676;2023-05-19T16:20:43;18.20;50.90
1650;DHT22;822;53.670;8.676;2023-05-19T16:23:10;18.10;51.00
1650;DHT22;822;53.670;8.676;2023-05-19T16:25:37;18.00;51.10
1650;DHT22;822;53.670;8.676;2023-05-19T16:28:06;18.00;51.30
1650;DHT22;822;53.670;8.676;2023-05-19T16:30:33;18.00;51.50
1650;DHT22;822;53.670;8.676;2023-05-19T16:33:00;17.90;51.60
1650;DHT22;822;53.670;8.676;2023-05-19T16:35:27;17.90;51.60
1650;DHT22;822;53.670;8.676;2023-05-19T16:37:54;17.90;51.80
1650;DHT22;822;53.670;8.676;2023-05-19T16:40:21;17.80;51.90